sensor_id;sensor_type;location;lat;lon;timestamp;P1;durP1;ratioP1;P2;durP2;ratioP2
78903;SDS011;68291;49.602;8.722;2023-05-07T00:02:30;2.93;;;2.33;;
78903;SDS011;68291;49.602;8.722;2023-05-07T00:05:18;6.27;;;2.63;;
78903;SDS011;68291;49.602;8.722;2023-05-07T00:08:13;3.93;;;2.50;;
78903;SDS011;68291;49.602;8.722;2023-05-07T00:10:54;4.93;;;2.30;;
78903;SDS011;68291;49.602;8.722;2023-05-07T00:13:41;3.03;;;2.60;;
78903;SDS011;68291;49.602;8.722;2023-05-07T00:16:12;3.17;;;2.53;;
78903;SDS011;68291;49.602;8.722;2023-05-07T00:18:45;5.07;;;2.50;;
78903;SDS011;68291;49.602;8.722;2023-05-07T00:21:34;3.30;;;2.60;;
78903;SDS011;68291;49.602;8.722;2023-05-07T00:24:16;4.23;;;2.43;;
78903;SDS011;68291;49.602;8.722;2023-05-07T00:26:48;3.40;;;2.50;;
78903;SDS011;68291;49.602;8.722;2023-05-07T00:29:43;2.80;;;2.47;;
78903;SDS011;68291;49.602;8.722;2023-05-07T00:32:32;6.23;;;2.50;;
78903;SDS011;68291;49.602;8.722;2023-05-07T00:35:29;4.43;;;2.70;;
78903;SDS011;68291;49.602;8.722;2023-05-07T00:38:00;3.93;;;2.57;;
78903;SDS011;68291;49.602;8.722;2023-05-07T00:40:57;3.17;;;2.27;;
78903;SDS011;68291;49.602;8.722;2023-05-07T00:43:46;3.87;;;2.97;;
78903;SDS011;68291;49.602;8.722;2023-05-07T00:46:35;2.70;;;2.50;;
78903;SDS011;68291;49.602;8.722;2023-05-07T00:49:13;5.17;;;2.80;;
78903;SDS011;68291;49.602;8.722;2023-05-07T00:52:00;3.30;;;2.30;;
78903;SDS011;68291;49.602;8.722;2023-05-07T00:54:32;3.50;;;2.37;;
78903;SDS011;68291;49.602;8.722;2023-05-07T01:00:19;3.30;;;2.37;;
78903;SDS011;68291;49.602;8.722;2023-05-07T01:02:57;2.47;;;2.27;;
78903;SDS011;68291;49.602;8.722;2023-05-07T01:05:29;5.37;;;2.40;;
78903;SDS011;68291;49.602;8.722;2023-05-07T01:08:24;2.97;;;2.27;;
78903;SDS011;68291;49.602;8.722;2023-05-07T01:11:05;2.57;;;2.13;;
78903;SDS011;68291;49.602;8.722;2023-05-07T01:14:13;2.53;;;2.10;;
78903;SDS011;68291;49.602;8.722;2023-05-07T01:16:48;2.83;;;2.27;;
78903;SDS011;68291;49.602;8.722;2023-05-07T01:19:36;3.57;;;2.20;;
78903;SDS011;68291;49.602;8.722;2023-05-07T01:22:30;3.10;;;2.07;;
78903;SDS011;68291;49.602;8.722;2023-05-07T01:25:30;4.73;;;2.50;;
78903;SDS011;68291;49.602;8.722;2023-05-07T01:28:25;3.40;;;2.23;;
78903;SDS011;68291;49.602;8.722;2023-05-07T01:31:07;2.17;;;1.97;;
78903;SDS011;68291;49.602;8.722;2023-05-07T01:33:50;2.83;;;2.20;;
78903;SDS011;68291;49.602;8.722;2023-05-07T01:36:46;3.30;;;2.40;;
78903;SDS011;68291;49.602;8.722;2023-05-07T01:42:25;3.13;;;2.50;;
78903;SDS011;68291;49.602;8.722;2023-05-07T01:45:08;3.23;;;2.53;;
78903;SDS011;68291;49.602;8.722;2023-05-07T01:47:42;4.13;;;2.37;;
78903;SDS011;68291;49.602;8.722;2023-05-07T01:50:22;3.70;;;2.20;;
78903;SDS011;68291;49.602;8.722;2023-05-07T01:53:19;2.77;;;2.20;;
78903;SDS011;68291;49.602;8.722;2023-05-07T01:56:00;2.70;;;2.30;;
78903;SDS011;68291;49.602;8.722;2023-05-07T01:58:37;3.17;;;2.43;;
78903;SDS011;68291;49.602;8.722;2023-05-07T02:01:25;2.60;;;2.27;;
78903;SDS011;68291;49.602;8.722;2023-05-07T02:04:32;2.43;;;2.23;;
78903;SDS011;68291;49.602;8.722;2023-05-07T02:07:13;4.27;;;2.50;;
78903;SDS011;68291;49.602;8.722;2023-05-07T02:09:44;2.40;;;1.93;;
78903;SDS011;68291;49.602;8.722;2023-05-07T02:15:48;3.50;;;2.33;;
78903;SDS011;68291;49.602;8.722;2023-05-07T02:18:22;2.50;;;2.10;;
78903;SDS011;68291;49.602;8.722;2023-05-07T02:20:55;4.37;;;2.10;;
78903;SDS011;68291;49.602;8.722;2023-05-07T02:23:50;2.47;;;2.03;;
78903;SDS011;68291;49.602;8.722;2023-05-07T02:26:46;2.63;;;2.00;;
78903;SDS011;68291;49.602;8.722;2023-05-07T02:29:26;7.57;;;2.20;;
78903;SDS011;68291;49.602;8.722;2023-05-07T02:32:08;5.20;;;2.27;;
78903;SDS011;68291;49.602;8.722;2023-05-07T02:34:51;4.43;;;2.13;;
78903;SDS011;68291;49.602;8.722;2023-05-07T02:37:31;3.00;;;2.10;;
78903;SDS011;68291;49.602;8.722;2023-05-07T02:40:02;2.90;;;2.33;;
78903;SDS011;68291;49.602;8.722;2023-05-07T02:42:55;2.40;;;2.20;;
78903;SDS011;68291;49.602;8.722;2023-05-07T02:46:07;2.40;;;2.20;;
78903;SDS011;68291;49.602;8.722;2023-05-07T02:48:43;3.23;;;2.13;;
78903;SDS011;68291;49.602;8.722;2023-05-07T02:51:26;2.70;;;2.37;;
78903;SDS011;68291;49.602;8.722;2023-05-07T02:54:00;2.77;;;2.00;;
78903;SDS011;68291;49.602;8.722;2023-05-07T02:56:52;2.80;;;2.37;;
78903;SDS011;68291;49.602;8.722;2023-05-07T02:59:49;4.10;;;2.30;;
78903;SDS011;68291;49.602;8.722;2023-05-07T03:06:04;4.27;;;2.40;;
78903;SDS011;68291;49.602;8.722;2023-05-07T03:08:57;2.97;;;2.30;;
78903;SDS011;68291;49.602;8.722;2023-05-07T03:11:37;2.37;;;2.17;;
78903;SDS011;68291;49.602;8.722;2023-05-07T03:14:18;4.73;;;2.40;;
78903;SDS011;68291;49.602;8.722;2023-05-07T03:16:50;2.40;;;2.20;;
78903;SDS011;68291;49.602;8.722;2023-05-07T03:19:46;3.80;;;2.40;;
78903;SDS011;68291;49.602;8.722;2023-05-07T03:22:33;2.50;;;2.30;;
78903;SDS011;68291;49.602;8.722;2023-05-07T03:25:31;5.30;;;2.40;;
78903;SDS011;68291;49.602;8.722;2023-05-07T03:28:21;2.50;;;2.30;;
78903;SDS011;68291;49.602;8.722;2023-05-07T03:30:58;3.07;;;2.27;;
78903;SDS011;68291;49.602;8.722;2023-05-07T03:33:38;2.97;;;2.20;;
78903;SDS011;68291;49.602;8.722;2023-05-07T03:36:52;3.60;;;2.27;;
78903;SDS011;68291;49.602;8.722;2023-05-07T03:39:41;2.37;;;2.00;;
78903;SDS011;68291;49.602;8.722;2023-05-07T03:42:16;2.40;;;2.07;;
78903;SDS011;68291;49.602;8.722;2023-05-07T03:44:49;2.20;;;2.00;;
78903;SDS011;68291;49.602;8.722;2023-05-07T03:47:21;2.40;;;2.20;;
78903;SDS011;68291;49.602;8.722;2023-05-07T03:50:09;3.30;;;2.23;;
78903;SDS011;68291;49.602;8.722;2023-05-07T03:52:48;4.43;;;2.17;;
78903;SDS011;68291;49.602;8.722;2023-05-07T03:55:21;5.23;;;2.50;;
78903;SDS011;68291;49.602;8.722;2023-05-07T03:58:15;2.83;;;2.17;;
78903;SDS011;68291;49.602;8.722;2023-05-07T04:01:07;3.60;;;2.50;;
78903;SDS011;68291;49.602;8.722;2023-05-07T04:04:00;3.90;;;2.17;;
78903;SDS011;68291;49.602;8.722;2023-05-07T04:06:51;2.30;;;2.10;;
78903;SDS011;68291;49.602;8.722;2023-05-07T04:09:51;2.27;;;2.07;;
78903;SDS011;68291;49.602;8.722;2023-05-07T04:12:22;2.30;;;2.10;;
78903;SDS011;68291;49.602;8.722;2023-05-07T04:15:17;4.03;;;2.40;;
78903;SDS011;68291;49.602;8.722;2023-05-07T04:18:01;3.67;;;2.00;;
78903;SDS011;68291;49.602;8.722;2023-05-07T04:20:38;4.90;;;2.43;;
78903;SDS011;68291;49.602;8.722;2023-05-07T04:23:18;8.67;;;2.60;;
78903;SDS011;68291;49.602;8.722;2023-05-07T04:25:51;2.53;;;2.13;;
78903;SDS011;68291;49.602;8.722;2023-05-07T04:28:46;2.97;;;2.40;;
78903;SDS011;68291;49.602;8.722;2023-05-07T04:31:27;3.97;;;2.60;;
78903;SDS011;68291;49.602;8.722;2023-05-07T04:34:21;4.27;;;2.30;;
78903;SDS011;68291;49.602;8.722;2023-05-07T04:37:20;3.27;;;2.13;;
78903;SDS011;68291;49.602;8.722;2023-05-07T04:39:52;6.77;;;2.70;;
78903;SDS011;68291;49.602;8.722;2023-05-07T04:42:56;2.70;;;2.13;;
78903;SDS011;68291;49.602;8.722;2023-05-07T04:45:41;5.03;;;2.40;;
78903;SDS011;68291;49.602;8.722;2023-05-07T04:48:33;3.27;;;2.33;;
78903;SDS011;68291;49.602;8.722;2023-05-07T04:51:23;5.07;;;2.20;;
78903;SDS011;68291;49.602;8.722;2023-05-07T04:54:12;2.67;;;2.40;;
78903;SDS011;68291;49.602;8.722;2023-05-07T04:56:57;3.63;;;2.30;;
78903;SDS011;68291;49.602;8.722;2023-05-07T04:59:37;3.60;;;2.50;;
78903;SDS011;68291;49.602;8.722;2023-05-07T05:02:34;2.47;;;2.27;;
78903;SDS011;68291;49.602;8.722;2023-05-07T05:05:22;2.30;;;2.10;;
78903;SDS011;68291;49.602;8.722;2023-05-07T05:07:58;3.97;;;2.00;;
78903;SDS011;68291;49.602;8.722;2023-05-07T05:10:29;3.13;;;2.30;;
78903;SDS011;68291;49.602;8.722;2023-05-07T05:13:05;2.83;;;2.20;;
78903;SDS011;68291;49.602;8.722;2023-05-07T05:19:05;4.53;;;2.20;;
78903;SDS011;68291;49.602;8.722;2023-05-07T05:21:45;2.23;;;2.07;;
78903;SDS011;68291;49.602;8.722;2023-05-07T05:24:25;2.40;;;2.20;;
78903;SDS011;68291;49.602;8.722;2023-05-07T05:27:05;2.30;;;2.10;;
78903;SDS011;68291;49.602;8.722;2023-05-07T05:30:01;2.43;;;2.23;;
78903;SDS011;68291;49.602;8.722;2023-05-07T05:32:58;3.33;;;2.13;;
78903;SDS011;68291;49.602;8.722;2023-05-07T05:35:40;2.77;;;2.17;;
78903;SDS011;68291;49.602;8.722;2023-05-07T05:38:13;3.50;;;2.30;;
78903;SDS011;68291;49.602;8.722;2023-05-07T05:41:01;3.20;;;2.23;;
78903;SDS011;68291;49.602;8.722;2023-05-07T05:43:52;2.40;;;2.20;;
78903;SDS011;68291;49.602;8.722;2023-05-07T05:46:48;3.20;;;2.00;;
78903;SDS011;68291;49.602;8.722;2023-05-07T05:49:35;2.43;;;2.20;;
78903;SDS011;68291;49.602;8.722;2023-05-07T05:52:17;6.27;;;2.33;;
78903;SDS011;68291;49.602;8.722;2023-05-07T05:55:00;3.77;;;2.10;;
78903;SDS011;68291;49.602;8.722;2023-05-07T05:57:35;2.47;;;1.97;;
78903;SDS011;68291;49.602;8.722;2023-05-07T06:00:30;2.27;;;2.00;;
78903;SDS011;68291;49.602;8.722;2023-05-07T06:03:07;2.37;;;2.17;;
78903;SDS011;68291;49.602;8.722;2023-05-07T06:06:00;4.77;;;2.20;;
78903;SDS011;68291;49.602;8.722;2023-05-07T06:08:44;3.90;;;2.27;;
78903;SDS011;68291;49.602;8.722;2023-05-07T06:11:31;2.47;;;2.27;;
78903;SDS011;68291;49.602;8.722;2023-05-07T06:14:13;2.97;;;2.00;;
78903;SDS011;68291;49.602;8.722;2023-05-07T06:17:01;2.43;;;2.03;;
78903;SDS011;68291;49.602;8.722;2023-05-07T06:19:46;2.00;;;1.83;;
78903;SDS011;68291;49.602;8.722;2023-05-07T06:22:41;2.40;;;2.20;;
78903;SDS011;68291;49.602;8.722;2023-05-07T06:25:36;2.27;;;1.97;;
78903;SDS011;68291;49.602;8.722;2023-05-07T06:28:07;4.17;;;2.20;;
78903;SDS011;68291;49.602;8.722;2023-05-07T06:30:41;2.67;;;2.10;;
78903;SDS011;68291;49.602;8.722;2023-05-07T06:33:37;4.50;;;2.20;;
78903;SDS011;68291;49.602;8.722;2023-05-07T06:36:18;2.37;;;2.10;;
78903;SDS011;68291;49.602;8.722;2023-05-07T06:39:14;2.37;;;1.90;;
78903;SDS011;68291;49.602;8.722;2023-05-07T06:42:12;4.07;;;2.17;;
78903;SDS011;68291;49.602;8.722;2023-05-07T06:45:05;2.30;;;2.10;;
78903;SDS011;68291;49.602;8.722;2023-05-07T06:47:48;2.33;;;1.90;;
78903;SDS011;68291;49.602;8.722;2023-05-07T06:50:39;1.80;;;1.70;;
78903;SDS011;68291;49.602;8.722;2023-05-07T06:53:29;2.63;;;1.97;;
78903;SDS011;68291;49.602;8.722;2023-05-07T06:59:08;3.50;;;1.90;;
78903;SDS011;68291;49.602;8.722;2023-05-07T07:01:55;2.13;;;1.93;;
78903;SDS011;68291;49.602;8.722;2023-05-07T07:04:40;2.53;;;1.90;;
78903;SDS011;68291;49.602;8.722;2023-05-07T07:07:22;2.60;;;2.13;;
78903;SDS011;68291;49.602;8.722;2023-05-07T07:10:01;3.43;;;2.20;;
78903;SDS011;68291;49.602;8.722;2023-05-07T07:12:52;2.10;;;1.83;;
78903;SDS011;68291;49.602;8.722;2023-05-07T07:15:46;2.80;;;2.00;;
78903;SDS011;68291;49.602;8.722;2023-05-07T07:18:18;2.40;;;2.00;;
78903;SDS011;68291;49.602;8.722;2023-05-07T07:21:03;2.97;;;1.70;;
78903;SDS011;68291;49.602;8.722;2023-05-07T07:23:34;3.20;;;2.00;;
78903;SDS011;68291;49.602;8.722;2023-05-07T07:26:30;2.30;;;1.87;;
78903;SDS011;68291;49.602;8.722;2023-05-07T07:29:26;2.90;;;1.63;;
78903;SDS011;68291;49.602;8.722;2023-05-07T07:32:00;2.00;;;1.80;;
78903;SDS011;68291;49.602;8.722;2023-05-07T07:34:37;2.43;;;1.90;;
78903;SDS011;68291;49.602;8.722;2023-05-07T07:37:22;2.17;;;1.70;;
78903;SDS011;68291;49.602;8.722;2023-05-07T07:40:11;2.00;;;1.80;;
78903;SDS011;68291;49.602;8.722;2023-05-07T07:42:49;2.00;;;1.80;;
78903;SDS011;68291;49.602;8.722;2023-05-07T07:45:44;2.03;;;1.67;;
78903;SDS011;68291;49.602;8.722;2023-05-07T07:48:19;1.90;;;1.77;;
78903;SDS011;68291;49.602;8.722;2023-05-07T07:51:00;2.33;;;1.90;;
78903;SDS011;68291;49.602;8.722;2023-05-07T07:53:56;2.00;;;1.73;;
78903;SDS011;68291;49.602;8.722;2023-05-07T07:56:42;2.03;;;1.77;;
78903;SDS011;68291;49.602;8.722;2023-05-07T07:59:15;2.93;;;1.90;;
78903;SDS011;68291;49.602;8.722;2023-05-07T08:02:14;1.90;;;1.67;;
78903;SDS011;68291;49.602;8.722;2023-05-07T08:05:04;2.03;;;1.73;;
78903;SDS011;68291;49.602;8.722;2023-05-07T08:07:57;2.10;;;1.90;;
78903;SDS011;68291;49.602;8.722;2023-05-07T08:10:59;2.97;;;1.70;;
78903;SDS011;68291;49.602;8.722;2023-05-07T08:13:54;2.00;;;1.83;;
78903;SDS011;68291;49.602;8.722;2023-05-07T08:16:34;2.10;;;1.90;;
78903;SDS011;68291;49.602;8.722;2023-05-07T08:19:10;1.80;;;1.70;;
78903;SDS011;68291;49.602;8.722;2023-05-07T08:21:51;2.90;;;1.60;;
78903;SDS011;68291;49.602;8.722;2023-05-07T08:24:23;2.87;;;1.97;;
78903;SDS011;68291;49.602;8.722;2023-05-07T08:27:06;1.90;;;1.70;;
78903;SDS011;68291;49.602;8.722;2023-05-07T08:30:01;2.30;;;1.73;;
78903;SDS011;68291;49.602;8.722;2023-05-07T08:32:48;2.80;;;1.77;;
78903;SDS011;68291;49.602;8.722;2023-05-07T08:39:07;2.13;;;1.83;;
78903;SDS011;68291;49.602;8.722;2023-05-07T08:41:51;2.97;;;1.80;;
78903;SDS011;68291;49.602;8.722;2023-05-07T08:44:28;2.20;;;2.00;;
78903;SDS011;68291;49.602;8.722;2023-05-07T08:47:16;2.90;;;1.90;;
78903;SDS011;68291;49.602;8.722;2023-05-07T08:50:01;2.30;;;1.77;;
78903;SDS011;68291;49.602;8.722;2023-05-07T08:52:53;3.67;;;1.73;;
78903;SDS011;68291;49.602;8.722;2023-05-07T08:55:32;2.27;;;1.83;;
78903;SDS011;68291;49.602;8.722;2023-05-07T08:58:27;2.17;;;1.97;;
78903;SDS011;68291;49.602;8.722;2023-05-07T09:01:22;2.00;;;1.80;;
78903;SDS011;68291;49.602;8.722;2023-05-07T09:04:05;1.77;;;1.67;;
78903;SDS011;68291;49.602;8.722;2023-05-07T09:06:53;1.60;;;1.50;;
78903;SDS011;68291;49.602;8.722;2023-05-07T09:09:56;2.83;;;1.90;;
78903;SDS011;68291;49.602;8.722;2023-05-07T09:12:49;2.17;;;1.97;;
78903;SDS011;68291;49.602;8.722;2023-05-07T09:15:37;2.40;;;1.77;;
78903;SDS011;68291;49.602;8.722;2023-05-07T09:18:29;2.80;;;2.10;;
78903;SDS011;68291;49.602;8.722;2023-05-07T09:21:12;2.87;;;2.10;;
78903;SDS011;68291;49.602;8.722;2023-05-07T09:23:50;2.57;;;1.87;;
78903;SDS011;68291;49.602;8.722;2023-05-07T09:26:41;2.00;;;1.90;;
78903;SDS011;68291;49.602;8.722;2023-05-07T09:29:27;2.27;;;1.93;;
78903;SDS011;68291;49.602;8.722;2023-05-07T09:32:07;2.20;;;1.90;;
78903;SDS011;68291;49.602;8.722;2023-05-07T09:34:39;3.50;;;2.13;;
78903;SDS011;68291;49.602;8.722;2023-05-07T09:37:34;2.10;;;1.90;;
78903;SDS011;68291;49.602;8.722;2023-05-07T09:40:31;2.87;;;2.00;;
78903;SDS011;68291;49.602;8.722;2023-05-07T09:43:18;3.33;;;1.83;;
78903;SDS011;68291;49.602;8.722;2023-05-07T09:46:10;2.13;;;1.80;;
78903;SDS011;68291;49.602;8.722;2023-05-07T09:48:57;2.10;;;1.90;;
78903;SDS011;68291;49.602;8.722;2023-05-07T09:51:58;2.07;;;1.80;;
78903;SDS011;68291;49.602;8.722;2023-05-07T09:54:39;2.80;;;2.00;;
78903;SDS011;68291;49.602;8.722;2023-05-07T09:57:16;2.07;;;1.80;;
78903;SDS011;68291;49.602;8.722;2023-05-07T10:00:11;1.90;;;1.77;;
78903;SDS011;68291;49.602;8.722;2023-05-07T10:02:51;2.00;;;1.80;;
78903;SDS011;68291;49.602;8.722;2023-05-07T10:05:44;3.20;;;1.60;;
78903;SDS011;68291;49.602;8.722;2023-05-07T10:08:21;2.17;;;1.70;;
78903;SDS011;68291;49.602;8.722;2023-05-07T10:10:59;2.20;;;2.00;;
78903;SDS011;68291;49.602;8.722;2023-05-07T10:13:54;2.00;;;1.80;;
78903;SDS011;68291;49.602;8.722;2023-05-07T10:20:15;1.90;;;1.80;;
78903;SDS011;68291;49.602;8.722;2023-05-07T10:22:55;2.17;;;1.70;;
78903;SDS011;68291;49.602;8.722;2023-05-07T10:25:35;1.87;;;1.63;;
78903;SDS011;68291;49.602;8.722;2023-05-07T10:28:14;2.73;;;1.87;;
78903;SDS011;68291;49.602;8.722;2023-05-07T10:31:12;1.97;;;1.80;;
78903;SDS011;68291;49.602;8.722;2023-05-07T10:34:14;2.60;;;2.00;;
78903;SDS011;68291;49.602;8.722;2023-05-07T10:37:15;1.90;;;1.70;;
78903;SDS011;68291;49.602;8.722;2023-05-07T10:39:48;2.43;;;2.00;;
78903;SDS011;68291;49.602;8.722;2023-05-07T10:42:22;2.47;;;1.90;;
78903;SDS011;68291;49.602;8.722;2023-05-07T10:45:11;3.10;;;2.00;;
78903;SDS011;68291;49.602;8.722;2023-05-07T10:48:06;3.60;;;1.97;;
78903;SDS011;68291;49.602;8.722;2023-05-07T10:54:21;2.37;;;2.00;;
78903;SDS011;68291;49.602;8.722;2023-05-07T10:57:32;2.10;;;1.67;;
78903;SDS011;68291;49.602;8.722;2023-05-07T11:00:41;1.83;;;1.60;;
78903;SDS011;68291;49.602;8.722;2023-05-07T11:03:29;2.20;;;2.00;;
78903;SDS011;68291;49.602;8.722;2023-05-07T11:06:22;2.03;;;1.80;;
78903;SDS011;68291;49.602;8.722;2023-05-07T11:09:22;1.60;;;1.50;;
78903;SDS011;68291;49.602;8.722;2023-05-07T11:12:15;2.80;;;1.83;;
78903;SDS011;68291;49.602;8.722;2023-05-07T11:14:56;1.87;;;1.70;;
78903;SDS011;68291;49.602;8.722;2023-05-07T11:17:52;1.83;;;1.70;;
78903;SDS011;68291;49.602;8.722;2023-05-07T11:20:51;2.60;;;1.90;;
78903;SDS011;68291;49.602;8.722;2023-05-07T11:24:01;2.10;;;1.63;;
78903;SDS011;68291;49.602;8.722;2023-05-07T11:26:46;1.80;;;1.70;;
78903;SDS011;68291;49.602;8.722;2023-05-07T11:29:30;2.00;;;1.70;;
78903;SDS011;68291;49.602;8.722;2023-05-07T11:32:12;2.93;;;1.80;;
78903;SDS011;68291;49.602;8.722;2023-05-07T11:35:02;1.80;;;1.70;;
78903;SDS011;68291;49.602;8.722;2023-05-07T11:37:46;3.37;;;2.10;;
78903;SDS011;68291;49.602;8.722;2023-05-07T11:40:36;2.20;;;1.63;;
78903;SDS011;68291;49.602;8.722;2023-05-07T11:43:59;2.20;;;1.83;;
78903;SDS011;68291;49.602;8.722;2023-05-07T11:46:42;3.10;;;1.90;;
78903;SDS011;68291;49.602;8.722;2023-05-07T11:49:36;2.13;;;1.67;;
78903;SDS011;68291;49.602;8.722;2023-05-07T11:52:25;1.73;;;1.60;;
78903;SDS011;68291;49.602;8.722;2023-05-07T11:55:11;2.00;;;1.70;;
78903;SDS011;68291;49.602;8.722;2023-05-07T11:57:55;1.70;;;1.60;;
78903;SDS011;68291;49.602;8.722;2023-05-07T12:00:30;4.23;;;1.97;;
78903;SDS011;68291;49.602;8.722;2023-05-07T12:03:21;1.90;;;1.70;;
78903;SDS011;68291;49.602;8.722;2023-05-07T12:05:59;3.67;;;1.80;;
78903;SDS011;68291;49.602;8.722;2023-05-07T12:08:32;1.93;;;1.50;;
78903;SDS011;68291;49.602;8.722;2023-05-07T12:11:26;2.60;;;1.57;;
78903;SDS011;68291;49.602;8.722;2023-05-07T12:14:19;5.33;;;1.70;;
78903;SDS011;68291;49.602;8.722;2023-05-07T12:17:10;2.90;;;1.50;;
78903;SDS011;68291;49.602;8.722;2023-05-07T12:19:58;1.70;;;1.60;;
78903;SDS011;68291;49.602;8.722;2023-05-07T12:22:42;1.73;;;1.60;;
78903;SDS011;68291;49.602;8.722;2023-05-07T12:25:25;2.20;;;1.53;;
78903;SDS011;68291;49.602;8.722;2023-05-07T12:28:16;2.00;;;1.80;;
78903;SDS011;68291;49.602;8.722;2023-05-07T12:31:05;1.70;;;1.40;;
78903;SDS011;68291;49.602;8.722;2023-05-07T12:33:59;2.37;;;1.60;;
78903;SDS011;68291;49.602;8.722;2023-05-07T12:36:43;1.83;;;1.70;;
78903;SDS011;68291;49.602;8.722;2023-05-07T12:39:18;2.40;;;1.70;;
78903;SDS011;68291;49.602;8.722;2023-05-07T12:41:55;2.13;;;1.60;;
78903;SDS011;68291;49.602;8.722;2023-05-07T12:44:45;1.63;;;1.50;;
78903;SDS011;68291;49.602;8.722;2023-05-07T12:50:34;2.33;;;1.70;;
78903;SDS011;68291;49.602;8.722;2023-05-07T12:53:31;1.90;;;1.50;;
78903;SDS011;68291;49.602;8.722;2023-05-07T12:56:15;3.07;;;1.60;;
78903;SDS011;68291;49.602;8.722;2023-05-07T12:58:56;1.50;;;1.40;;
78903;SDS011;68291;49.602;8.722;2023-05-07T13:01:37;1.50;;;1.40;;
78903;SDS011;68291;49.602;8.722;2023-05-07T13:04:14;1.70;;;1.60;;
78903;SDS011;68291;49.602;8.722;2023-05-07T13:07:00;1.60;;;1.40;;
78903;SDS011;68291;49.602;8.722;2023-05-07T13:09:50;1.97;;;1.60;;
78903;SDS011;68291;49.602;8.722;2023-05-07T13:12:43;1.60;;;1.40;;
78903;SDS011;68291;49.602;8.722;2023-05-07T13:15:15;1.70;;;1.50;;
78903;SDS011;68291;49.602;8.722;2023-05-07T13:18:02;1.50;;;1.40;;
78903;SDS011;68291;49.602;8.722;2023-05-07T13:21:07;2.07;;;1.60;;
78903;SDS011;68291;49.602;8.722;2023-05-07T13:23:58;1.70;;;1.60;;
78903;SDS011;68291;49.602;8.722;2023-05-07T13:26:40;2.07;;;1.67;;
78903;SDS011;68291;49.602;8.722;2023-05-07T13:29:27;1.60;;;1.50;;
78903;SDS011;68291;49.602;8.722;2023-05-07T13:32:18;2.80;;;1.73;;
78903;SDS011;68291;49.602;8.722;2023-05-07T13:34:58;2.03;;;1.70;;
78903;SDS011;68291;49.602;8.722;2023-05-07T13:37:42;1.50;;;1.40;;
78903;SDS011;68291;49.602;8.722;2023-05-07T13:40:28;2.27;;;1.77;;
78903;SDS011;68291;49.602;8.722;2023-05-07T13:43:22;2.80;;;1.90;;
78903;SDS011;68291;49.602;8.722;2023-05-07T13:46:06;2.10;;;1.90;;
78903;SDS011;68291;49.602;8.722;2023-05-07T13:48:46;2.47;;;2.00;;
78903;SDS011;68291;49.602;8.722;2023-05-07T13:51:42;2.00;;;1.50;;
78903;SDS011;68291;49.602;8.722;2023-05-07T13:54:23;2.23;;;1.90;;
78903;SDS011;68291;49.602;8.722;2023-05-07T13:57:09;2.20;;;1.90;;
78903;SDS011;68291;49.602;8.722;2023-05-07T13:59:55;2.57;;;1.80;;
78903;SDS011;68291;49.602;8.722;2023-05-07T14:02:41;2.00;;;1.70;;
78903;SDS011;68291;49.602;8.722;2023-05-07T14:05:13;2.10;;;1.90;;
78903;SDS011;68291;49.602;8.722;2023-05-07T14:08:07;2.53;;;1.90;;
78903;SDS011;68291;49.602;8.722;2023-05-07T14:11:04;2.60;;;2.20;;
78903;SDS011;68291;49.602;8.722;2023-05-07T14:13:39;1.80;;;1.70;;
78903;SDS011;68291;49.602;8.722;2023-05-07T14:16:24;2.07;;;1.97;;
78903;SDS011;68291;49.602;8.722;2023-05-07T14:18:56;2.00;;;1.80;;
78903;SDS011;68291;49.602;8.722;2023-05-07T14:21:45;2.90;;;2.10;;
78903;SDS011;68291;49.602;8.722;2023-05-07T14:24:34;3.23;;;2.10;;
78903;SDS011;68291;49.602;8.722;2023-05-07T14:27:57;2.10;;;2.00;;
78903;SDS011;68291;49.602;8.722;2023-05-07T14:30:50;2.33;;;2.13;;
78903;SDS011;68291;49.602;8.722;2023-05-07T14:33:40;2.47;;;2.27;;
78903;SDS011;68291;49.602;8.722;2023-05-07T14:36:33;2.67;;;2.40;;
78903;SDS011;68291;49.602;8.722;2023-05-07T14:39:23;2.93;;;2.40;;
78903;SDS011;68291;49.602;8.722;2023-05-07T14:42:22;2.67;;;2.47;;
78903;SDS011;68291;49.602;8.722;2023-05-07T14:45:21;3.97;;;2.67;;
78903;SDS011;68291;49.602;8.722;2023-05-07T14:48:11;3.53;;;2.50;;
78903;SDS011;68291;49.602;8.722;2023-05-07T14:51:09;2.60;;;2.40;;
78903;SDS011;68291;49.602;8.722;2023-05-07T14:53:59;4.60;;;2.70;;
78903;SDS011;68291;49.602;8.722;2023-05-07T14:56:51;5.90;;;2.73;;
78903;SDS011;68291;49.602;8.722;2023-05-07T14:59:50;3.97;;;2.30;;
78903;SDS011;68291;49.602;8.722;2023-05-07T15:06:30;5.93;;;2.50;;
78903;SDS011;68291;49.602;8.722;2023-05-07T15:09:27;3.77;;;2.40;;
78903;SDS011;68291;49.602;8.722;2023-05-07T15:12:49;11.27;;;3.27;;
78903;SDS011;68291;49.602;8.722;2023-05-07T15:16:27;5.00;;;2.30;;
78903;SDS011;68291;49.602;8.722;2023-05-07T15:19:51;9.57;;;2.77;;
78903;SDS011;68291;49.602;8.722;2023-05-07T15:22:44;11.37;;;3.20;;
78903;SDS011;68291;49.602;8.722;2023-05-07T15:25:36;5.93;;;2.20;;
78903;SDS011;68291;49.602;8.722;2023-05-07T15:28:29;5.90;;;2.60;;
78903;SDS011;68291;49.602;8.722;2023-05-07T15:31:25;8.03;;;2.60;;
78903;SDS011;68291;49.602;8.722;2023-05-07T15:34:15;6.47;;;2.40;;
78903;SDS011;68291;49.602;8.722;2023-05-07T15:37:27;4.90;;;2.70;;
78903;SDS011;68291;49.602;8.722;2023-05-07T15:40:19;6.80;;;2.97;;
78903;SDS011;68291;49.602;8.722;2023-05-07T15:43:14;6.43;;;2.63;;
78903;SDS011;68291;49.602;8.722;2023-05-07T15:46:05;4.40;;;2.70;;
78903;SDS011;68291;49.602;8.722;2023-05-07T15:49:08;7.30;;;2.50;;
78903;SDS011;68291;49.602;8.722;2023-05-07T15:52:02;4.40;;;2.57;;
78903;SDS011;68291;49.602;8.722;2023-05-07T15:55:09;2.83;;;2.33;;
78903;SDS011;68291;49.602;8.722;2023-05-07T15:58:06;2.97;;;2.40;;
78903;SDS011;68291;49.602;8.722;2023-05-07T16:00:56;4.00;;;2.27;;
78903;SDS011;68291;49.602;8.722;2023-05-07T16:03:52;3.50;;;2.40;;
78903;SDS011;68291;49.602;8.722;2023-05-07T16:06:54;2.83;;;2.30;;
78903;SDS011;68291;49.602;8.722;2023-05-07T16:09:48;3.80;;;2.20;;
78903;SDS011;68291;49.602;8.722;2023-05-07T16:12:44;4.13;;;2.60;;
78903;SDS011;68291;49.602;8.722;2023-05-07T16:15:34;5.17;;;2.33;;
78903;SDS011;68291;49.602;8.722;2023-05-07T16:18:26;2.23;;;1.97;;
78903;SDS011;68291;49.602;8.722;2023-05-07T16:21:14;2.83;;;2.20;;
78903;SDS011;68291;49.602;8.722;2023-05-07T16:24:05;4.00;;;2.17;;
78903;SDS011;68291;49.602;8.722;2023-05-07T16:26:55;4.47;;;2.60;;
78903;SDS011;68291;49.602;8.722;2023-05-07T16:29:58;4.70;;;2.37;;
78903;SDS011;68291;49.602;8.722;2023-05-07T16:32:50;6.30;;;2.47;;
78903;SDS011;68291;49.602;8.722;2023-05-07T16:35:40;7.50;;;2.23;;
78903;SDS011;68291;49.602;8.722;2023-05-07T16:38:33;3.93;;;2.50;;
78903;SDS011;68291;49.602;8.722;2023-05-07T16:41:24;6.43;;;2.77;;
78903;SDS011;68291;49.602;8.722;2023-05-07T16:44:21;5.63;;;2.50;;
78903;SDS011;68291;49.602;8.722;2023-05-07T16:47:17;5.47;;;2.70;;
78903;SDS011;68291;49.602;8.722;2023-05-07T16:50:20;3.90;;;2.63;;
78903;SDS011;68291;49.602;8.722;2023-05-07T16:53:14;5.87;;;3.17;;
78903;SDS011;68291;49.602;8.722;2023-05-07T16:56:04;6.40;;;3.47;;
78903;SDS011;68291;49.602;8.722;2023-05-07T16:59:18;4.77;;;2.80;;
78903;SDS011;68291;49.602;8.722;2023-05-07T17:02:08;7.83;;;2.60;;
78903;SDS011;68291;49.602;8.722;2023-05-07T17:05:14;6.07;;;2.40;;
78903;SDS011;68291;49.602;8.722;2023-05-07T17:08:04;6.83;;;2.80;;
78903;SDS011;68291;49.602;8.722;2023-05-07T17:11:13;4.07;;;2.47;;
78903;SDS011;68291;49.602;8.722;2023-05-07T17:14:14;2.90;;;2.60;;
78903;SDS011;68291;49.602;8.722;2023-05-07T17:17:10;4.97;;;2.37;;
78903;SDS011;68291;49.602;8.722;2023-05-07T17:20:28;5.13;;;2.50;;
78903;SDS011;68291;49.602;8.722;2023-05-07T17:23:26;6.17;;;2.70;;
78903;SDS011;68291;49.602;8.722;2023-05-07T17:26:24;3.63;;;2.57;;
78903;SDS011;68291;49.602;8.722;2023-05-07T17:29:17;7.97;;;2.93;;
78903;SDS011;68291;49.602;8.722;2023-05-07T17:32:15;3.77;;;2.50;;